LFRS/NTE METAR and TAF weather

Enter ICAO airport designator
Station Type Date Time Source
LFRS METAR 2022/08/16 19:30 UTC NOAA

LFRS 161930Z AUTO 27004KT CAVOK 20/15 Q1008 NOSIG


Station Type Date Time Source
LFRS Decoded METAR 2022/08/16 19:30 UTC NOAA

Nantes, France (LFRS) 47-10N 001-36W 27M
Aug 16, 2022 - 03:30 PM EDT / 2022.08.16 1930 UTC
Wind: from the W (270 degrees) at 5 MPH (4 KT):0
Visibility: greater than 7 mile(s):0
Temperature: 68 F (20 C)
Dew Point: 59 F (15 C)
Relative Humidity: 72%
Pressure (altimeter): 29.77 in. Hg (1008 hPa)
ob: LFRS 161930Z AUTO 27004KT CAVOK 20/15 Q1008 NOSIG
cycle: 19

Station Type Date Time Source
LFRS TAF 2022/08/16 18:56 UTC NOAA

TAF LFRS 161700Z 1618/1724 20008KT 9999 SCT040 PROB30
TEMPO 1703/1707 2000 BR BKN008
TEMPO 1704/1717 4000 SHRA SCT013 BKN020TCU PROB30
TEMPO 1705/1716 TSRA BKN020CB

Example: see airport list